createdAt,value
2019-03-28T00:01:53.573Z,56.30
2019-03-28T00:04:25.099Z,56.20
2019-03-28T00:06:56.556Z,56.20
2019-03-28T00:09:27.881Z,56.30
2019-03-28T00:11:59.157Z,56.10
2019-03-28T00:14:30.721Z,56.00
2019-03-28T00:17:02.226Z,56.00
2019-03-28T00:19:33.741Z,55.90
2019-03-28T00:22:05.835Z,55.90
2019-03-28T00:24:51.068Z,55.90
2019-03-28T00:27:22.859Z,55.80
2019-03-28T00:29:54.462Z,55.70
2019-03-28T00:32:26.356Z,55.70
2019-03-28T00:34:58.163Z,55.60
2019-03-28T00:37:29.679Z,55.60
2019-03-28T00:40:01.029Z,55.60
2019-03-28T00:42:32.567Z,55.60
2019-03-28T00:45:04.322Z,55.60
2019-03-28T00:47:36.241Z,55.60
2019-03-28T00:50:08.437Z,55.60
2019-03-28T00:52:39.857Z,55.50
2019-03-28T00:55:11.539Z,55.50
2019-03-28T00:57:43.059Z,55.50
2019-03-28T01:00:15.697Z,55.60
2019-03-28T01:02:47.106Z,55.80
2019-03-28T01:05:18.675Z,56.00
2019-03-28T01:07:50.124Z,55.70
2019-03-28T01:10:22.141Z,55.70
2019-03-28T01:12:53.681Z,55.70
2019-03-28T01:15:25.307Z,55.60
2019-03-28T01:17:56.915Z,55.60
2019-03-28T01:20:28.381Z,55.50
2019-03-28T01:23:00.060Z,55.60
2019-03-28T01:25:31.614Z,55.50
2019-03-28T01:28:03.180Z,55.40
2019-03-28T01:30:34.740Z,55.40
2019-03-28T01:33:06.315Z,55.30
2019-03-28T01:35:37.989Z,55.20
2019-03-28T01:38:09.796Z,55.30
2019-03-28T01:40:41.241Z,55.30
2019-03-28T01:43:12.702Z,55.30
2019-03-28T01:45:44.215Z,55.20
2019-03-28T01:48:16.008Z,55.10
2019-03-28T01:50:47.636Z,55.10
2019-03-28T01:53:19.089Z,55.10
2019-03-28T01:55:50.672Z,55.00
2019-03-28T01:58:22.093Z,55.10
2019-03-28T02:00:53.656Z,55.00
2019-03-28T02:03:25.194Z,55.10
2019-03-28T02:05:56.722Z,55.10
2019-03-28T02:08:28.374Z,54.90
2019-03-28T02:10:59.888Z,55.00
2019-03-28T02:13:31.536Z,55.00
2019-03-28T02:16:03.147Z,55.00
2019-03-28T02:18:34.523Z,55.00
2019-03-28T02:21:06.114Z,55.00
2019-03-28T02:23:37.564Z,54.90
2019-03-28T02:26:09.174Z,54.90
2019-03-28T02:28:41.122Z,55.00
2019-03-28T02:31:12.543Z,54.90
2019-03-28T02:33:44.014Z,54.90
2019-03-28T02:36:15.443Z,55.00
2019-03-28T02:38:47.018Z,55.60
2019-03-28T02:41:18.489Z,55.00
2019-03-28T02:43:50.008Z,55.00
2019-03-28T02:46:22.572Z,55.00
2019-03-28T02:48:54.347Z,55.00
2019-03-28T02:51:25.790Z,55.00
2019-03-28T02:53:57.307Z,55.00
2019-03-28T02:56:28.800Z,55.00
2019-03-28T02:59:00.345Z,55.00
2019-03-28T03:01:31.941Z,55.00
2019-03-28T03:04:03.355Z,55.00
2019-03-28T03:06:34.896Z,54.90
2019-03-28T03:09:09.316Z,54.90
2019-03-28T03:11:42.974Z,55.00
2019-03-28T03:14:14.273Z,54.90
2019-03-28T03:16:48.890Z,54.90
2019-03-28T03:19:20.638Z,54.90
2019-03-28T03:21:52.122Z,54.90
2019-03-28T03:24:23.714Z,55.00
2019-03-28T03:26:55.340Z,55.00
2019-03-28T03:29:26.814Z,55.00
2019-03-28T03:31:58.190Z,55.00
2019-03-28T03:34:29.916Z,55.00
2019-03-28T03:37:01.390Z,55.00
2019-03-28T03:39:33.024Z,54.90
2019-03-28T03:42:04.410Z,54.90
2019-03-28T03:44:35.971Z,55.00
2019-03-28T03:47:07.398Z,55.00
2019-03-28T03:49:38.874Z,55.00
2019-03-28T03:52:10.497Z,54.90
2019-03-28T03:54:41.891Z,55.00
2019-03-28T03:57:13.368Z,54.90
2019-03-28T03:59:44.774Z,54.80
2019-03-28T04:02:16.383Z,54.90
2019-03-28T04:04:48.003Z,54.70
2019-03-28T04:07:19.499Z,54.80
2019-03-28T04:09:50.955Z,54.90
2019-03-28T04:12:22.525Z,54.90
2019-03-28T04:14:53.988Z,54.90
2019-03-28T04:17:25.344Z,54.90
2019-03-28T04:19:57.043Z,54.80
2019-03-28T04:22:28.555Z,54.80
2019-03-28T04:25:00.065Z,54.80
2019-03-28T04:27:31.674Z,54.80
2019-03-28T04:30:03.188Z,54.80
2019-03-28T04:32:34.737Z,54.80
2019-03-28T04:35:06.139Z,54.90
2019-03-28T04:37:37.667Z,54.90
2019-03-28T04:40:09.396Z,54.80
2019-03-28T04:42:40.941Z,54.90
2019-03-28T04:45:12.361Z,55.50
2019-03-28T04:47:43.857Z,54.90
2019-03-28T04:50:15.197Z,54.80
2019-03-28T04:52:46.572Z,54.80
2019-03-28T04:55:18.093Z,54.90
2019-03-28T04:57:49.779Z,54.80
2019-03-28T05:00:21.911Z,54.80
2019-03-28T05:02:53.364Z,54.90
2019-03-28T05:05:24.694Z,55.00
2019-03-28T05:07:56.197Z,54.80
2019-03-28T05:10:27.656Z,54.80
2019-03-28T05:12:59.051Z,54.90
2019-03-28T05:15:30.608Z,54.90
2019-03-28T05:18:01.970Z,54.90
2019-03-28T05:20:33.579Z,54.80
2019-03-28T05:23:05.054Z,54.80
2019-03-28T05:25:36.395Z,54.90
2019-03-28T05:28:07.829Z,54.80
2019-03-28T05:30:39.515Z,54.80
2019-03-28T05:33:10.796Z,54.80
2019-03-28T05:35:42.442Z,54.80
2019-03-28T05:38:13.794Z,54.90
2019-03-28T05:40:45.245Z,54.90
2019-03-28T05:43:16.780Z,54.90
2019-03-28T05:45:48.309Z,54.80
2019-03-28T05:48:20.008Z,54.90
2019-03-28T05:50:51.667Z,54.90
2019-03-28T05:53:23.185Z,54.90
2019-03-28T05:55:54.471Z,54.80
2019-03-28T05:58:25.850Z,54.90
2019-03-28T06:00:57.524Z,54.90
2019-03-28T06:03:29.078Z,54.80
2019-03-28T06:06:00.552Z,54.90
2019-03-28T06:08:31.987Z,55.60
2019-03-28T06:11:03.303Z,55.60
2019-03-28T06:13:34.860Z,57.90
2019-03-28T06:16:06.239Z,57.10
2019-03-28T06:18:37.679Z,58.40
2019-03-28T06:21:09.120Z,61.00
2019-03-28T06:23:40.473Z,60.00
2019-03-28T06:26:11.785Z,59.40
2019-03-28T06:28:43.503Z,59.40
2019-03-28T06:31:14.939Z,61.40
2019-03-28T06:33:46.436Z,60.10
2019-03-28T06:36:17.974Z,59.20
2019-03-28T06:38:50.230Z,58.20
2019-03-28T06:41:21.884Z,57.00
2019-03-28T06:43:53.227Z,58.10
2019-03-28T06:46:24.669Z,57.60
2019-03-28T06:48:56.343Z,57.10
2019-03-28T06:51:27.886Z,56.10
2019-03-28T06:53:59.234Z,56.20
2019-03-28T06:56:30.721Z,55.60
2019-03-28T06:59:02.122Z,55.10
2019-03-28T07:01:33.822Z,54.90
2019-03-28T07:04:05.238Z,54.50
2019-03-28T07:06:36.681Z,54.30
2019-03-28T07:09:10.138Z,54.30
2019-03-28T07:11:41.651Z,54.20
2019-03-28T07:14:12.972Z,54.00
2019-03-28T07:16:44.400Z,53.80
2019-03-28T07:19:16.115Z,53.80
2019-03-28T07:21:47.573Z,53.80
2019-03-28T07:24:19.132Z,53.90
2019-03-28T07:26:51.460Z,53.90
2019-03-28T07:29:23.300Z,54.00
2019-03-28T07:31:54.910Z,53.90
2019-03-28T07:34:26.616Z,54.20
2019-03-28T07:36:58.192Z,54.20
2019-03-28T07:39:29.844Z,54.30
2019-03-28T07:42:01.303Z,54.70
2019-03-28T07:44:32.891Z,54.50
2019-03-28T07:47:04.298Z,54.40
2019-03-28T07:49:37.591Z,54.50
2019-03-28T07:52:09.103Z,54.50
2019-03-28T07:54:40.609Z,54.50
2019-03-28T07:57:12.191Z,54.50
2019-03-28T07:59:44.175Z,54.50
2019-03-28T08:02:15.809Z,54.60
2019-03-28T08:04:47.337Z,54.70
2019-03-28T08:07:18.704Z,63.80
2019-03-28T08:09:50.270Z,59.70
2019-03-28T08:12:23.325Z,59.90
2019-03-28T08:14:55.213Z,58.70
2019-03-28T08:17:26.552Z,57.40
2019-03-28T08:19:58.072Z,57.00
2019-03-28T08:22:29.963Z,56.60
2019-03-28T08:25:01.389Z,56.50
2019-03-28T08:27:32.866Z,56.10
2019-03-28T08:30:17.286Z,55.50
2019-03-28T08:32:39.859Z,54.30
2019-03-28T08:35:10.986Z,53.00
2019-03-28T08:37:42.519Z,52.20
2019-03-28T08:40:32.366Z,51.40
2019-03-28T08:43:03.862Z,51.40
2019-03-28T08:45:35.323Z,50.80
2019-03-28T08:48:06.773Z,49.40
2019-03-28T08:50:38.371Z,49.40
2019-03-28T08:53:10.076Z,48.60
2019-03-28T08:55:41.708Z,48.20
2019-03-28T08:58:13.371Z,47.90
2019-03-28T09:00:52.391Z,47.60
2019-03-28T09:03:18.608Z,47.20
2019-03-28T09:05:50.000Z,47.10
2019-03-28T09:08:21.406Z,47.30
2019-03-28T09:10:53.025Z,47.70
2019-03-28T09:13:24.725Z,48.00
2019-03-28T09:15:56.110Z,48.20
2019-03-28T09:18:27.653Z,48.80
2019-03-28T09:20:59.199Z,49.10
2019-03-28T09:23:30.827Z,49.20
2019-03-28T09:26:04.340Z,49.80
2019-03-28T09:28:35.639Z,49.40
2019-03-28T09:31:19.185Z,49.70
2019-03-28T09:33:41.019Z,49.90
2019-03-28T09:36:13.211Z,50.10
2019-03-28T09:38:44.862Z,50.00
2019-03-28T09:41:17.065Z,50.20
2019-03-28T09:43:55.061Z,50.30
2019-03-28T09:46:22.116Z,50.40
2019-03-28T09:48:54.142Z,50.60
2019-03-28T09:51:26.256Z,50.70
2019-03-28T09:53:57.866Z,50.70
2019-03-28T09:56:29.449Z,50.90
2019-03-28T09:59:01.015Z,50.90
2019-03-28T10:01:32.700Z,51.00
2019-03-28T10:04:06.386Z,51.10
2019-03-28T10:06:37.968Z,51.20
2019-03-28T10:09:10.629Z,51.30
2019-03-28T10:11:42.643Z,51.30
2019-03-28T10:14:14.874Z,51.50
2019-03-28T10:16:46.427Z,51.60
2019-03-28T10:19:17.985Z,52.50
2019-03-28T10:21:49.679Z,52.10
2019-03-28T10:24:21.168Z,52.20
2019-03-28T10:26:52.551Z,52.20
2019-03-28T10:29:23.969Z,52.50
2019-03-28T10:31:55.247Z,52.60
2019-03-28T10:34:26.480Z,52.60
2019-03-28T10:36:57.944Z,52.70
2019-03-28T10:39:31.817Z,52.80
2019-03-28T10:42:03.748Z,52.80
2019-03-28T10:44:35.902Z,53.00
2019-03-28T10:47:08.389Z,53.00
2019-03-28T10:49:42.810Z,53.20
2019-03-28T10:52:15.797Z,53.30
2019-03-28T10:54:48.738Z,53.20
2019-03-28T10:57:29.705Z,53.30
2019-03-28T10:59:57.303Z,53.50
2019-03-28T11:02:35.310Z,53.50
2019-03-28T11:05:07.788Z,53.50
2019-03-28T11:07:41.250Z,53.60
2019-03-28T11:10:13.214Z,53.70
2019-03-28T11:12:45.874Z,53.90
2019-03-28T11:15:18.030Z,53.80
2019-03-28T11:17:50.491Z,54.20
2019-03-28T11:20:22.042Z,54.20
2019-03-28T11:22:53.698Z,54.00
2019-03-28T11:25:25.618Z,53.90
2019-03-28T11:27:57.956Z,53.90
2019-03-28T11:30:30.461Z,53.90
2019-03-28T11:33:06.229Z,54.00
2019-03-28T11:35:36.036Z,54.00
2019-03-28T11:38:09.701Z,54.10
2019-03-28T11:40:43.551Z,54.20
2019-03-28T11:43:20.865Z,54.20
2019-03-28T11:45:54.852Z,54.20
2019-03-28T11:48:28.003Z,54.20
2019-03-28T11:51:01.524Z,54.20
2019-03-28T11:53:33.018Z,54.30
2019-03-28T11:56:05.845Z,54.50
2019-03-28T11:58:47.290Z,54.30
2019-03-28T12:01:19.496Z,54.40
2019-03-28T12:03:51.930Z,54.50
2019-03-28T12:06:26.222Z,54.70
2019-03-28T12:08:58.006Z,54.70
2019-03-28T12:11:31.848Z,54.80
2019-03-28T12:14:04.011Z,54.90
2019-03-28T12:16:36.596Z,54.90
2019-03-28T12:19:10.730Z,54.80
2019-03-28T12:21:43.057Z,54.70
2019-03-28T12:24:14.952Z,54.90
2019-03-28T12:26:46.897Z,54.80
2019-03-28T12:29:19.085Z,54.90
2019-03-28T12:31:51.174Z,54.90
2019-03-28T12:34:23.898Z,54.80
2019-03-28T12:36:55.870Z,54.90
2019-03-28T12:39:29.520Z,54.80
2019-03-28T12:42:01.066Z,54.90
2019-03-28T12:44:32.669Z,54.90
2019-03-28T12:47:04.413Z,54.70
2019-03-28T12:49:36.794Z,54.30
2019-03-28T12:52:08.219Z,54.10
2019-03-28T12:54:39.500Z,53.80
2019-03-28T12:57:14.273Z,53.60
2019-03-28T12:59:44.539Z,53.40
2019-03-28T13:02:27.485Z,53.20
2019-03-28T13:04:50.868Z,53.10
2019-03-28T13:07:25.598Z,53.10
2019-03-28T13:09:58.224Z,53.50
2019-03-28T13:12:31.838Z,53.10
2019-03-28T13:15:04.191Z,53.10
2019-03-28T13:17:35.750Z,53.20
2019-03-28T13:20:09.185Z,53.20
2019-03-28T13:22:42.404Z,53.30
2019-03-28T13:25:15.166Z,53.20
2019-03-28T13:27:50.465Z,53.20
2019-03-28T13:30:23.528Z,53.10
2019-03-28T13:32:57.298Z,53.00
2019-03-28T13:35:28.858Z,52.80
2019-03-28T13:38:02.897Z,52.60
2019-03-28T13:40:40.883Z,52.70
2019-03-28T13:43:12.414Z,52.70
2019-03-28T13:45:45.476Z,52.60
2019-03-28T13:48:17.146Z,52.70
2019-03-28T13:50:49.017Z,52.60
2019-03-28T13:53:20.460Z,52.50
2019-03-28T13:55:54.174Z,52.50
2019-03-28T13:58:25.877Z,52.40
2019-03-28T14:00:59.069Z,52.50
2019-03-28T14:03:30.386Z,52.50
2019-03-28T14:06:02.295Z,52.60
2019-03-28T14:08:33.730Z,53.00
2019-03-28T14:11:05.012Z,53.10
2019-03-28T14:13:36.364Z,52.90
2019-03-28T14:16:10.282Z,52.90
2019-03-28T14:18:42.091Z,52.70
2019-03-28T14:21:15.166Z,52.80
2019-03-28T14:23:46.832Z,52.90
2019-03-28T14:26:19.901Z,53.00
2019-03-28T14:28:52.598Z,53.00
2019-03-28T14:31:24.167Z,53.40
2019-03-28T14:33:58.165Z,53.40
2019-03-28T14:36:29.644Z,53.30
2019-03-28T14:39:01.476Z,53.10
2019-03-28T14:41:32.969Z,53.30
2019-03-28T14:44:04.254Z,53.30
2019-03-28T14:46:35.722Z,53.40
2019-03-28T14:49:07.259Z,53.90
2019-03-28T14:51:39.204Z,57.10
2019-03-28T14:54:11.195Z,55.50
2019-03-28T14:56:42.920Z,54.80
2019-03-28T14:59:14.465Z,54.90
2019-03-28T15:01:46.133Z,54.90
2019-03-28T15:04:17.629Z,54.60
2019-03-28T15:06:49.101Z,54.50
2019-03-28T15:09:20.449Z,54.70
2019-03-28T15:11:51.883Z,54.80
2019-03-28T15:14:23.451Z,55.00
2019-03-28T15:16:56.619Z,55.10
2019-03-28T15:19:29.279Z,55.60
2019-03-28T15:22:02.843Z,55.30
2019-03-28T15:24:34.324Z,54.90
2019-03-28T15:27:05.849Z,54.40
2019-03-28T15:29:37.270Z,54.30
2019-03-28T15:32:08.676Z,54.20
2019-03-28T15:34:40.096Z,54.00
2019-03-28T15:37:11.459Z,53.60
2019-03-28T15:39:42.921Z,53.50
2019-03-28T15:42:14.441Z,53.60
2019-03-28T15:44:45.969Z,53.50
2019-03-28T15:47:17.772Z,53.60
2019-03-28T15:49:49.547Z,53.70
2019-03-28T15:52:20.993Z,53.60
2019-03-28T15:54:52.441Z,53.70
2019-03-28T15:57:23.864Z,53.60
2019-03-28T15:59:55.342Z,54.10
2019-03-28T16:02:27.035Z,53.60
2019-03-28T16:04:58.532Z,54.20
2019-03-28T16:07:30.203Z,54.50
2019-03-28T16:10:01.871Z,54.80
2019-03-28T16:12:33.143Z,54.70
2019-03-28T16:15:04.997Z,54.80
2019-03-28T16:17:36.485Z,54.80
2019-03-28T16:20:09.347Z,54.80
2019-03-28T16:22:41.146Z,54.70
2019-03-28T16:25:12.834Z,54.70
2019-03-28T16:27:44.536Z,54.70
2019-03-28T16:30:19.420Z,54.70
2019-03-28T16:32:51.677Z,54.60
2019-03-28T16:35:23.250Z,55.00
2019-03-28T16:37:55.773Z,54.80
2019-03-28T16:40:27.999Z,54.50
2019-03-28T16:42:59.752Z,55.40
2019-03-28T16:45:35.790Z,54.60
2019-03-28T16:48:09.457Z,54.80
2019-03-28T16:50:41.002Z,54.40
2019-03-28T16:53:12.946Z,54.50
2019-03-28T16:55:44.457Z,54.60
2019-03-28T16:58:16.171Z,54.60
2019-03-28T17:00:47.624Z,54.60
2019-03-28T17:03:19.000Z,54.60
2019-03-28T17:05:50.404Z,54.80
2019-03-28T17:08:21.973Z,54.70
2019-03-28T17:10:54.186Z,54.80
2019-03-28T17:13:25.839Z,54.90
2019-03-28T17:15:57.534Z,54.80
2019-03-28T17:18:29.578Z,54.80
2019-03-28T17:21:00.981Z,54.90
2019-03-28T17:23:32.367Z,55.00
2019-03-28T17:26:05.727Z,55.20
2019-03-28T17:28:39.060Z,55.10
2019-03-28T17:31:11.940Z,55.00
2019-03-28T17:33:45.508Z,54.90
2019-03-28T17:36:18.567Z,56.00
2019-03-28T17:38:51.059Z,55.90
2019-03-28T17:41:25.191Z,55.60
2019-03-28T17:43:58.966Z,55.00
2019-03-28T17:46:32.757Z,61.50
2019-03-28T17:49:07.027Z,61.70
2019-03-28T17:51:40.993Z,58.70
2019-03-28T17:54:15.840Z,57.50
2019-03-28T17:56:47.816Z,59.80
2019-03-28T17:59:19.833Z,59.00
2019-03-28T18:01:51.318Z,58.60
2019-03-28T18:04:23.455Z,57.90
2019-03-28T18:06:55.035Z,57.80
2019-03-28T18:09:26.518Z,57.90
2019-03-28T18:11:57.988Z,58.20
2019-03-28T18:14:29.520Z,58.00
2019-03-28T18:17:01.890Z,57.80
2019-03-28T18:19:33.710Z,58.70
2019-03-28T18:22:05.110Z,58.90
2019-03-28T18:24:36.527Z,58.30
2019-03-28T18:27:08.183Z,58.40
2019-03-28T18:29:39.635Z,59.40
2019-03-28T18:32:10.933Z,60.10
2019-03-28T18:34:42.492Z,60.40
2019-03-28T18:37:13.864Z,60.00
2019-03-28T18:39:45.540Z,63.40
2019-03-28T18:42:16.942Z,67.80
2019-03-28T18:44:48.348Z,68.60
2019-03-28T18:47:19.796Z,68.20
2019-03-28T18:49:51.118Z,62.70
2019-03-28T18:52:24.988Z,63.90
2019-03-28T18:55:09.358Z,62.60
2019-03-28T18:57:43.719Z,61.30
2019-03-28T19:00:17.885Z,60.30
2019-03-28T19:02:51.815Z,59.70
2019-03-28T19:05:29.591Z,59.80
2019-03-28T19:08:03.590Z,60.00
2019-03-28T19:10:38.031Z,59.90
2019-03-28T19:13:15.038Z,71.20
2019-03-28T19:15:49.796Z,63.20
2019-03-28T19:18:23.931Z,68.80
2019-03-28T19:20:57.794Z,66.50
2019-03-28T19:23:32.145Z,66.60
2019-03-28T19:26:06.500Z,78.80
2019-03-28T19:28:41.551Z,81.10
2019-03-28T19:31:18.630Z,76.70
2019-03-28T19:33:53.569Z,72.80
2019-03-28T19:36:27.597Z,70.40
2019-03-28T19:39:01.529Z,68.70
2019-03-28T19:41:33.065Z,67.80
2019-03-28T19:44:04.390Z,66.00
2019-03-28T19:46:35.818Z,65.60
2019-03-28T19:49:07.391Z,63.80
2019-03-28T19:51:39.109Z,63.80
2019-03-28T19:54:10.543Z,63.10
2019-03-28T19:56:41.868Z,63.00
2019-03-28T19:59:13.246Z,62.10
2019-03-28T20:01:44.665Z,61.20
2019-03-28T20:04:15.892Z,60.80
2019-03-28T20:06:47.507Z,60.80
2019-03-28T20:09:19.333Z,60.50
2019-03-28T20:11:50.722Z,59.90
2019-03-28T20:14:22.205Z,60.10
2019-03-28T20:16:53.782Z,59.90
2019-03-28T20:19:25.328Z,59.20
2019-03-28T20:21:59.378Z,59.80
2019-03-28T20:24:30.425Z,60.00
2019-03-28T20:27:02.477Z,60.30
2019-03-28T20:29:35.079Z,60.30
2019-03-28T20:32:08.377Z,60.00
2019-03-28T20:34:40.175Z,59.70
2019-03-28T20:37:11.987Z,59.30
2019-03-28T20:39:43.619Z,59.50
2019-03-28T20:42:15.097Z,59.60
2019-03-28T20:44:46.605Z,59.70
2019-03-28T20:47:17.943Z,58.80
2019-03-28T20:49:49.454Z,57.80
2019-03-28T20:52:21.490Z,57.90
2019-03-28T20:54:53.997Z,57.40
2019-03-28T20:57:26.003Z,58.00
2019-03-28T20:59:57.697Z,58.50
2019-03-28T21:02:29.278Z,58.30
2019-03-28T21:05:01.357Z,58.30
2019-03-28T21:07:32.828Z,58.10
2019-03-28T21:10:04.257Z,58.70
2019-03-28T21:12:35.892Z,59.60
2019-03-28T21:15:07.728Z,60.40
2019-03-28T21:17:39.260Z,60.50
2019-03-28T21:20:11.136Z,60.80
2019-03-28T21:22:43.883Z,61.40
2019-03-28T21:25:15.477Z,61.90
2019-03-28T21:27:46.988Z,61.70
2019-03-28T21:30:18.774Z,62.80
2019-03-28T21:32:55.693Z,63.30
2019-03-28T21:35:24.543Z,63.90
2019-03-28T21:37:55.942Z,64.50
2019-03-28T21:40:27.751Z,64.90
2019-03-28T21:43:02.097Z,65.20
2019-03-28T21:45:33.728Z,65.30
2019-03-28T21:48:05.543Z,65.50
2019-03-28T21:50:37.950Z,65.50
2019-03-28T21:53:10.084Z,66.20
2019-03-28T21:55:54.332Z,66.30
2019-03-28T21:58:15.228Z,66.60
2019-03-28T22:00:47.827Z,62.80
2019-03-28T22:03:21.149Z,63.20
2019-03-28T22:05:53.443Z,62.90
2019-03-28T22:08:25.246Z,64.30
2019-03-28T22:10:57.216Z,64.30
2019-03-28T22:13:29.266Z,64.10
2019-03-28T22:16:00.950Z,64.10
2019-03-28T22:18:33.814Z,64.20
2019-03-28T22:21:06.001Z,64.10
2019-03-28T22:23:37.896Z,64.20
2019-03-28T22:26:09.761Z,64.40
2019-03-28T22:28:41.806Z,62.00
2019-03-28T22:31:13.457Z,60.10
2019-03-28T22:33:45.277Z,59.90
2019-03-28T22:36:18.563Z,58.40
2019-03-28T22:38:51.239Z,57.50
2019-03-28T22:41:24.232Z,57.20
2019-03-28T22:43:55.669Z,56.80
2019-03-28T22:46:26.996Z,55.90
2019-03-28T22:48:58.543Z,55.00
2019-03-28T22:51:31.641Z,54.40
2019-03-28T22:54:03.539Z,54.50
2019-03-28T22:56:34.904Z,54.20
2019-03-28T22:59:06.452Z,53.80
2019-03-28T23:01:38.134Z,54.10
2019-03-28T23:04:09.607Z,54.00
2019-03-28T23:06:41.044Z,54.00
2019-03-28T23:09:12.569Z,54.00
2019-03-28T23:11:44.182Z,54.00
2019-03-28T23:14:15.662Z,54.00
2019-03-28T23:16:47.474Z,53.90
2019-03-28T23:19:18.979Z,53.90
2019-03-28T23:21:50.272Z,54.00
2019-03-28T23:24:21.439Z,53.80
2019-03-28T23:26:52.779Z,53.80
2019-03-28T23:29:23.988Z,53.80
2019-03-28T23:31:55.450Z,53.80
2019-03-28T23:34:27.042Z,53.80
2019-03-28T23:36:58.821Z,53.80
2019-03-28T23:39:30.356Z,53.90
2019-03-28T23:42:01.725Z,53.90
2019-03-28T23:44:33.232Z,54.00
2019-03-28T23:47:04.829Z,54.00
2019-03-28T23:49:38.580Z,53.80
2019-03-28T23:52:09.288Z,53.80
2019-03-28T23:54:40.655Z,54.40
2019-03-28T23:57:11.998Z,53.90
2019-03-28T23:59:43.407Z,53.80
